Amherst Junction, Wisconsin
Current Conditions -  °F | °C
As of 11:55 AM on Friday 24 Oct 2014 (Local Time) from KSTE Reporting Station
Haze Haze  
Wind Chill: 43°   Ceiling: 200
Heat Index: 46°   Visibility: 4mi
Dew Point: 46°   Wind: 6mph
Humidity: 100%   Direction: 200°SSW
Pressure: 30"   Gusts: NA
Location:  44.47°N, 89.31°W
Report Text: KSTE 241655Z AUTO 20005KT 4SM BR OVC002 08/08 A3000 RMK AO2 P0001 T00760076
Loading
Personal Weather Stations






























Interactive Weather Map
Tropical Storm Tracking
New forecast layout! Learn more

10-Day Weather Forecast

Advertisements
Track Severe Weather on mobile